Time;durP1;ratioP1;P1;durP2;ratioP2;P2;SDS_P1;SDS_P2;PMS_P1;PMS_P2;Temp;Humidity;BMP_temperature;BMP_pressure;BME280_temperature;BME280_humidity;BME280_pressure;Samples;Min_cycle;Max_cycle;Signal;HPM_P1;HPM_P2
2021/04/06 00:00:16;;;;;;;1.20;1.10;;;0.60;99.90;;;;;;5129208;28;20432;-80
2021/04/06 00:02:47;;;;;;;1.53;1.43;;;0.40;99.90;;;;;;5128439;28;20385;-79
2021/04/06 00:05:15;;;;;;;1.73;1.30;;;0.60;99.90;;;;;;5128631;28;20396;-79
2021/04/06 00:07:44;;;;;;;4.67;1.90;;;0.70;99.90;;;;;;5110497;28;20818;-79
2021/04/06 00:10:17;;;;;;;1.57;1.20;;;0.50;99.90;;;;;;5128343;28;20453;-79
2021/04/06 00:12:45;;;;;;;3.63;1.60;;;0.60;99.90;;;;;;5128703;28;20468;-79
2021/04/06 00:15:14;;;;;;;1.53;1.43;;;0.50;99.90;;;;;;5110993;28;20392;-79
2021/04/06 00:17:44;;;;;;;1.70;1.60;;;0.40;99.90;;;;;;5110619;28;20396;-79
2021/04/06 00:20:11;;;;;;;2.10;1.90;;;0.40;99.90;;;;;;5128932;28;20359;-80
2021/04/06 00:22:38;;;;;;;1.30;1.20;;;0.30;99.90;;;;;;5127876;28;20391;-80
2021/04/06 00:25:09;;;;;;;2.30;2.10;;;0.50;99.90;;;;;;5093725;28;20392;-79
2021/04/06 00:27:41;;;;;;;2.70;1.60;;;0.40;99.90;;;;;;5093284;28;20410;-80
2021/04/06 00:30:10;;;;;;;1.80;1.70;;;0.30;99.90;;;;;;5110117;28;20390;-79
2021/04/06 00:32:37;;;;;;;2.57;2.37;;;0.40;99.90;;;;;;5110444;28;20403;-79
2021/04/06 00:35:05;;;;;;;3.73;2.10;;;0.70;99.90;;;;;;5128292;28;20367;-80
2021/04/06 00:37:33;;;;;;;2.17;1.70;;;0.70;99.90;;;;;;5110130;28;20392;-79
2021/04/06 00:40:06;;;;;;;1.90;1.70;;;0.60;99.90;;;;;;5127097;28;20392;-80
2021/04/06 00:42:34;;;;;;;3.03;2.70;;;0.70;99.90;;;;;;5108810;28;20953;-79
2021/04/06 00:45:08;;;;;;;1.97;1.87;;;0.70;99.90;;;;;;5093028;28;20414;-79
2021/04/06 00:47:35;;;;;;;3.93;1.83;;;0.80;99.90;;;;;;5107604;28;20407;-79
2021/04/06 00:50:07;;;;;;;2.53;1.60;;;0.70;99.90;;;;;;5107375;28;20400;-79
2021/04/06 00:52:33;;;;;;;3.10;1.67;;;0.70;99.90;;;;;;5088495;28;20869;-80
2021/04/06 00:55:00;;;;;;;5.80;3.00;;;1.00;99.90;;;;;;5088244;28;20411;-79
2021/04/06 00:57:28;;;;;;;3.43;3.00;;;0.90;99.90;;;;;;5106953;28;20540;-80
2021/04/06 01:00:15;;;;;;;3.30;2.50;;;0.90;99.90;;;;;;5105938;28;20423;-79
2021/04/06 01:03:02;;;;;;;2.70;1.57;;;0.90;99.90;;;;;;5106944;28;20370;-80
2021/04/06 01:05:31;;;;;;;1.60;1.50;;;0.80;99.90;;;;;;5106805;28;20403;-80
2021/04/06 01:07:58;;;;;;;1.60;1.50;;;0.40;99.90;;;;;;5106517;28;20527;-79
2021/04/06 01:10:26;;;;;;;1.93;1.83;;;0.60;99.90;;;;;;5088894;28;20475;-79
2021/04/06 01:12:54;;;;;;;2.50;2.13;;;0.70;99.90;;;;;;5089078;28;20476;-79
2021/04/06 01:15:24;;;;;;;1.90;1.80;;;0.70;99.90;;;;;;5107121;28;20364;-80
2021/04/06 01:17:51;;;;;;;2.40;1.97;;;0.90;99.90;;;;;;5089041;28;20400;-79
2021/04/06 01:20:19;;;;;;;2.80;1.73;;;0.50;99.90;;;;;;5089226;28;20389;-79
2021/04/06 01:22:48;;;;;;;1.80;1.70;;;0.50;99.90;;;;;;5107295;28;20367;-79
2021/04/06 01:25:17;;;;;;;2.20;1.80;;;0.50;99.90;;;;;;5107194;28;20393;-79
2021/04/06 01:27:43;;;;;;;1.43;1.33;;;0.80;99.90;;;;;;5106687;28;20415;-79
2021/04/06 01:30:10;;;;;;;2.17;1.97;;;0.40;99.90;;;;;;5089149;28;20393;-79
2021/04/06 01:32:36;;;;;;;2.07;1.87;;;0.50;99.90;;;;;;5107355;28;20159;-79
2021/04/06 01:35:06;;;;;;;7.70;4.30;;;0.30;99.90;;;;;;5106773;28;20396;-79
2021/04/06 01:37:33;;;;;;;1.90;1.80;;;0.40;99.90;;;;;;5106991;28;20419;-80
2021/04/06 01:40:00;;;;;;;1.90;1.80;;;0.50;99.90;;;;;;5106253;28;20392;-79
2021/04/06 01:42:30;;;;;;;3.03;1.97;;;0.40;99.90;;;;;;5106126;28;20391;-79
2021/04/06 01:44:58;;;;;;;1.63;1.53;;;0.20;99.90;;;;;;5106301;28;20360;-79
2021/04/06 01:47:26;;;;;;;1.90;1.77;;;0.20;99.90;;;;;;5126307;28;20451;-79
2021/04/06 01:49:53;;;;;;;1.90;1.80;;;0.30;99.90;;;;;;5127233;28;20399;-79
2021/04/06 01:52:19;;;;;;;1.73;1.63;;;0.20;99.90;;;;;;5127056;28;20392;-79
2021/04/06 01:54:56;;;;;;;1.93;1.80;;;0.60;99.90;;;;;;5127689;28;20823;-79
2021/04/06 01:57:29;;;;;;;4.00;3.10;;;0.70;99.90;;;;;;5133391;28;20358;-79
2021/04/06 01:59:59;;;;;;;2.40;1.80;;;0.80;99.90;;;;;;5131006;28;20395;-79
2021/04/06 02:02:26;;;;;;;2.57;2.40;;;0.50;99.90;;;;;;5126945;28;20392;-79
2021/04/06 02:04:56;;;;;;;1.67;1.57;;;0.80;99.90;;;;;;5119061;28;20411;-79
2021/04/06 02:07:26;;;;;;;3.10;2.23;;;0.60;99.90;;;;;;5127268;28;20515;-80
2021/04/06 02:09:52;;;;;;;3.70;2.43;;;0.50;99.90;;;;;;5126663;28;20388;-79
2021/04/06 02:12:23;;;;;;;2.03;1.90;;;0.60;99.90;;;;;;5126505;28;20895;-80
2021/04/06 02:14:53;;;;;;;3.53;2.03;;;0.40;99.90;;;;;;5126835;28;20740;-80
2021/04/06 02:17:18;;;;;;;2.30;2.10;;;0.60;99.90;;;;;;5126788;28;20711;-79
2021/04/06 02:19:44;;;;;;;2.10;1.90;;;0.40;99.90;;;;;;5126688;28;20362;-79
2021/04/06 02:22:12;;;;;;;3.10;1.60;;;0.20;99.90;;;;;;5128290;28;20184;-78
2021/04/06 02:24:42;;;;;;;5.03;1.90;;;0.20;99.90;;;;;;5111096;28;20158;-79
2021/04/06 02:27:24;;;;;;;4.90;2.30;;;0.20;99.90;;;;;;5126563;28;20431;-79
2021/04/06 02:29:56;;;;;;;8.60;2.43;;;0.30;99.90;;;;;;5126196;28;20354;-80
2021/04/06 02:32:32;;;;;;;1.70;1.60;;;0.60;99.90;;;;;;5126493;28;20355;-80
2021/04/06 02:35:01;;;;;;;2.07;1.90;;;0.50;99.90;;;;;;5126348;28;20366;-79
2021/04/06 02:37:30;;;;;;;2.60;1.67;;;0.60;99.90;;;;;;5126748;28;20383;-79
2021/04/06 02:39:58;;;;;;;2.30;1.97;;;0.90;99.90;;;;;;5108315;28;20697;-79
2021/04/06 02:42:28;;;;;;;1.90;1.80;;;1.00;99.90;;;;;;5125836;28;20415;-79
2021/04/06 02:45:06;;;;;;;1.70;1.60;;;0.70;99.90;;;;;;5129204;28;20429;-79
2021/04/06 02:47:35;;;;;;;1.40;1.30;;;0.80;99.90;;;;;;5139100;27;20441;-79
2021/04/06 02:50:01;;;;;;;1.83;1.73;;;0.60;99.90;;;;;;5094127;28;20403;-80
2021/04/06 02:52:27;;;;;;;10.23;2.43;;;0.70;99.90;;;;;;5126701;28;20398;-80
2021/04/06 02:54:53;;;;;;;2.20;1.50;;;0.50;99.90;;;;;;5125402;28;20502;-79
2021/04/06 02:57:22;;;;;;;5.20;2.27;;;0.40;99.90;;;;;;5125358;28;20464;-80
2021/04/06 02:59:48;;;;;;;2.20;1.50;;;0.30;99.90;;;;;;5125902;28;20470;-79
2021/04/06 03:02:15;;;;;;;2.30;1.77;;;0.20;99.90;;;;;;5124837;28;20380;-79
2021/04/06 03:04:43;;;;;;;2.80;1.73;;;0.10;99.90;;;;;;5126972;28;20387;-79
2021/04/06 03:07:25;;;;;;;5.57;1.83;;;0.50;99.90;;;;;;5128750;28;20452;-79
2021/04/06 03:09:54;;;;;;;7.33;1.73;;;0.10;99.90;;;;;;5129320;28;20418;-79
2021/04/06 03:12:21;;;;;;;3.63;2.53;;;0.00;99.90;;;;;;5094409;28;20387;-79
2021/04/06 03:14:49;;;;;;;1.63;1.53;;;0.10;99.90;;;;;;5129845;28;20392;-79
2021/04/06 03:17:16;;;;;;;1.20;1.10;;;0.10;99.90;;;;;;5111773;28;20377;-80
2021/04/06 03:19:44;;;;;;;7.80;2.23;;;0.20;99.90;;;;;;5129003;28;20388;-79
2021/04/06 03:22:11;;;;;;;7.37;1.90;;;0.20;99.90;;;;;;5110841;28;20384;-80
2021/04/06 03:24:39;;;;;;;1.77;1.67;;;0.20;99.90;;;;;;5128459;28;20474;-79
2021/04/06 03:27:06;;;;;;;10.23;2.60;;;0.10;99.90;;;;;;5128344;28;20511;-79
2021/04/06 03:29:32;;;;;;;1.90;1.80;;;0.30;99.90;;;;;;5111836;28;20376;-80
2021/04/06 03:31:59;;;;;;;1.10;1.00;;;0.60;99.90;;;;;;5111078;28;20478;-79
2021/04/06 03:34:38;;;;;;;3.40;2.47;;;0.70;99.90;;;;;;5129729;28;20444;-79
2021/04/06 03:37:05;;;;;;;2.03;1.83;;;0.90;99.90;;;;;;5129719;28;20363;-79
2021/04/06 03:39:36;;;;;;;1.50;1.40;;;0.80;99.90;;;;;;5130999;28;20453;-79
2021/04/06 03:42:03;;;;;;;1.10;1.00;;;0.90;99.90;;;;;;5027404;28;20419;-80
2021/04/06 03:44:30;;;;;;;1.20;1.10;;;0.70;99.90;;;;;;5025667;28;20925;-79
2021/04/06 03:47:00;;;;;;;1.97;1.70;;;1.10;99.90;;;;;;5026695;28;20448;-80
2021/04/06 03:49:27;;;;;;;1.40;1.10;;;1.20;99.90;;;;;;5026626;28;20448;-80
2021/04/06 03:52:00;;;;;;;1.93;1.60;;;1.30;99.90;;;;;;5025912;28;20444;-79
2021/04/06 03:54:38;;;;;;;2.20;2.10;;;1.30;99.90;;;;;;5027156;28;20513;-80
2021/04/06 03:57:38;;;;;;;8.53;2.50;;;1.10;99.90;;;;;;5026898;28;20416;-80
2021/04/06 04:00:08;;;;;;;1.30;1.20;;;1.30;99.90;;;;;;5025183;28;20396;-79
2021/04/06 04:02:33;;;;;;;1.50;1.40;;;1.00;99.90;;;;;;5026977;28;20418;-80
2021/04/06 04:05:00;;;;;;;1.20;1.10;;;1.30;99.90;;;;;;5010967;28;20416;-80
2021/04/06 04:07:27;;;;;;;2.70;1.70;;;1.40;99.90;;;;;;5063211;28;20263;-80
2021/04/06 04:09:53;;;;;;;2.17;2.07;;;1.20;99.90;;;;;;5069179;28;20394;-79
2021/04/06 04:12:19;;;;;;;2.70;1.57;;;1.20;99.90;;;;;;5083141;28;20525;-79
2021/04/06 04:14:45;;;;;;;7.57;1.70;;;1.30;99.90;;;;;;5127824;28;20439;-80
2021/04/06 04:17:11;;;;;;;1.97;1.30;;;1.20;99.90;;;;;;5128254;28;20317;-79
2021/04/06 04:19:40;;;;;;;2.00;1.83;;;1.40;99.90;;;;;;5128008;28;20227;-80
2021/04/06 04:22:05;;;;;;;1.67;1.57;;;1.40;99.90;;;;;;5128659;28;20854;-79
2021/04/06 04:24:31;;;;;;;7.80;1.50;;;1.40;99.90;;;;;;5128983;28;20215;-79
2021/04/06 04:26:57;;;;;;;3.00;1.40;;;1.40;99.90;;;;;;5135454;28;20163;-80
2021/04/06 04:29:23;;;;;;;5.00;1.60;;;1.40;99.90;;;;;;5134719;28;20170;-80
2021/04/06 04:31:49;;;;;;;1.40;1.30;;;1.20;99.90;;;;;;5134176;28;20174;-80
2021/04/06 04:34:15;;;;;;;2.20;1.20;;;1.50;99.90;;;;;;5098666;28;20452;-80
2021/04/06 04:36:41;;;;;;;2.33;2.13;;;1.50;99.90;;;;;;5112700;28;20371;-80
2021/04/06 04:39:07;;;;;;;1.40;1.30;;;1.60;99.90;;;;;;5109105;28;20381;-79
2021/04/06 04:41:33;;;;;;;1.90;1.80;;;1.60;99.90;;;;;;5108353;28;20163;-79
2021/04/06 04:43:59;;;;;;;1.57;1.23;;;1.70;99.90;;;;;;5086145;28;20422;-80
2021/04/06 04:46:25;;;;;;;11.70;1.90;;;1.20;99.90;;;;;;5108124;28;20468;-79
2021/04/06 04:48:51;;;;;;;2.90;1.70;;;1.10;99.90;;;;;;5090268;28;20166;-80
2021/04/06 04:51:16;;;;;;;9.40;2.00;;;1.20;99.90;;;;;;5108371;28;20159;-79
2021/04/06 04:53:42;;;;;;;3.83;2.03;;;1.30;99.90;;;;;;5088949;28;20203;-79
2021/04/06 04:56:08;;;;;;;3.23;1.93;;;1.30;99.90;;;;;;5107918;28;20167;-79
2021/04/06 04:58:34;;;;;;;1.93;1.57;;;1.20;99.90;;;;;;5091174;28;20162;-80
2021/04/06 05:00:59;;;;;;;1.97;1.53;;;1.20;99.90;;;;;;5073304;28;20194;-80
2021/04/06 05:03:25;;;;;;;1.53;1.43;;;1.30;99.90;;;;;;5106769;28;20200;-79
2021/04/06 05:05:51;;;;;;;3.20;2.20;;;1.40;99.90;;;;;;5089720;28;20194;-79
2021/04/06 05:08:17;;;;;;;3.27;1.67;;;1.20;99.90;;;;;;5115759;28;20243;-79
2021/04/06 05:10:42;;;;;;;2.50;2.07;;;1.30;99.90;;;;;;5127718;28;20178;-80
2021/04/06 05:13:08;;;;;;;4.10;2.00;;;1.40;99.90;;;;;;5127721;28;20209;-79
2021/04/06 05:15:34;;;;;;;3.00;2.60;;;1.40;99.90;;;;;;5122582;28;20174;-79
2021/04/06 05:18:00;;;;;;;3.60;2.53;;;1.70;99.90;;;;;;5120720;28;20192;-78
2021/04/06 05:20:26;;;;;;;3.70;2.30;;;1.60;99.90;;;;;;5107518;28;20158;-80
2021/04/06 05:22:51;;;;;;;8.33;2.20;;;1.60;99.90;;;;;;5128058;28;20395;-80
2021/04/06 05:25:17;;;;;;;5.17;1.97;;;1.50;99.90;;;;;;5103590;28;20426;-80
2021/04/06 05:27:44;;;;;;;1.60;1.50;;;1.70;99.90;;;;;;5089476;28;20209;-80
2021/04/06 05:30:10;;;;;;;1.47;1.37;;;1.50;99.90;;;;;;5121154;28;20414;-79
2021/04/06 05:32:36;;;;;;;6.47;1.90;;;1.70;99.90;;;;;;5111840;27;20439;-80
2021/04/06 05:35:04;;;;;;;2.13;1.53;;;1.80;99.90;;;;;;5125858;28;20386;-79
2021/04/06 05:37:29;;;;;;;2.07;1.50;;;1.80;99.90;;;;;;5127972;28;20410;-80
2021/04/06 05:39:55;;;;;;;1.50;1.40;;;1.90;99.90;;;;;;5126493;28;20485;-80
2021/04/06 05:42:22;;;;;;;1.80;1.70;;;1.90;99.90;;;;;;5124307;28;20190;-80
2021/04/06 05:44:48;;;;;;;2.57;2.37;;;1.70;99.90;;;;;;5122623;27;20252;-79
2021/04/06 05:47:30;;;;;;;1.63;1.53;;;1.80;99.90;;;;;;5102745;28;20470;-79
2021/04/06 05:49:56;;;;;;;1.73;1.63;;;1.80;99.90;;;;;;5121327;28;20437;-79
2021/04/06 05:52:23;;;;;;;2.17;1.97;;;1.70;99.90;;;;;;5115562;28;20423;-79
2021/04/06 05:54:49;;;;;;;4.27;2.03;;;1.60;99.90;;;;;;5120509;28;20432;-80
2021/04/06 05:57:14;;;;;;;5.33;1.77;;;1.60;99.90;;;;;;5119087;28;20443;-79
2021/04/06 05:59:40;;;;;;;1.30;1.20;;;1.60;99.90;;;;;;5136556;28;20412;-80
2021/04/06 06:02:09;;;;;;;4.83;2.37;;;1.50;99.90;;;;;;5135391;28;20174;-80
2021/04/06 06:04:37;;;;;;;5.20;1.30;;;1.60;99.90;;;;;;5118545;28;20526;-80
2021/04/06 06:07:03;;;;;;;3.50;1.80;;;1.50;99.90;;;;;;5135429;28;20398;-78
2021/04/06 06:09:32;;;;;;;1.40;1.30;;;1.70;99.90;;;;;;5133976;28;20439;-80
2021/04/06 06:12:04;;;;;;;5.23;2.73;;;1.70;99.90;;;;;;5119241;28;20190;-80
2021/04/06 06:14:36;;;;;;;2.40;2.20;;;1.60;99.90;;;;;;5097418;28;20452;-79
2021/04/06 06:17:14;;;;;;;5.73;3.50;;;1.60;99.90;;;;;;5113248;28;20817;-79
2021/04/06 06:19:40;;;;;;;9.37;2.10;;;1.90;99.90;;;;;;5110591;28;20440;-80
2021/04/06 06:22:17;;;;;;;1.70;1.60;;;2.20;99.90;;;;;;5096929;28;20419;-79
2021/04/06 06:24:45;;;;;;;2.33;1.60;;;2.20;99.90;;;;;;5110676;28;20424;-79
2021/04/06 06:27:24;;;;;;;2.33;1.90;;;2.30;99.90;;;;;;5087722;28;20425;-80
2021/04/06 06:29:50;;;;;;;2.30;2.10;;;2.40;99.90;;;;;;5094839;28;20405;-79
2021/04/06 06:32:23;;;;;;;2.07;1.90;;;2.40;99.90;;;;;;5086992;28;20433;-79
2021/04/06 06:34:52;;;;;;;4.47;1.83;;;2.50;99.90;;;;;;5086345;28;20524;-79
2021/04/06 06:37:26;;;;;;;3.57;2.57;;;2.60;99.90;;;;;;5095233;28;20379;-79
2021/04/06 06:40:05;;;;;;;2.47;1.80;;;2.70;99.90;;;;;;5095990;28;20737;-79
2021/04/06 06:42:34;;;;;;;4.67;2.53;;;2.70;99.90;;;;;;5078459;28;20418;-79
2021/04/06 06:45:01;;;;;;;2.13;2.00;;;2.40;99.90;;;;;;5095741;28;20409;-80
2021/04/06 06:47:28;;;;;;;2.23;1.83;;;2.50;99.90;;;;;;5109535;28;20463;-81
2021/04/06 06:50:06;;;;;;;2.47;2.27;;;2.40;99.90;;;;;;5128503;28;20412;-80
2021/04/06 06:52:33;;;;;;;4.10;1.63;;;2.40;99.90;;;;;;5129382;28;20408;-80
2021/04/06 06:55:02;;;;;;;4.60;2.67;;;2.40;99.90;;;;;;5125577;28;20431;-80
2021/04/06 06:57:34;;;;;;;3.00;2.77;;;2.60;99.90;;;;;;5132001;27;20435;-82
2021/04/06 07:00:13;;;;;;;11.30;2.97;;;2.50;99.90;;;;;;5135975;27;20393;-80
2021/04/06 07:02:39;;;;;;;2.43;1.60;;;2.70;99.90;;;;;;5130418;28;20767;-80
2021/04/06 07:05:12;;;;;;;3.10;1.77;;;2.60;99.90;;;;;;5112118;28;20408;-80
2021/04/06 07:07:52;;;;;;;5.73;2.60;;;2.80;99.90;;;;;;5131213;27;20492;-79
2021/04/06 07:10:20;;;;;;;3.93;2.37;;;2.50;99.90;;;;;;5092526;28;20452;-79
2021/04/06 07:12:47;;;;;;;2.63;2.07;;;2.70;99.90;;;;;;5123912;28;20436;-80
2021/04/06 07:15:15;;;;;;;4.40;2.83;;;2.80;99.90;;;;;;5122433;28;20404;-78
2021/04/06 07:17:43;;;;;;;3.47;3.17;;;2.80;99.90;;;;;;5112942;27;20450;-80
2021/04/06 07:20:16;;;;;;;4.73;2.50;;;3.10;99.90;;;;;;5124977;28;20410;-80
2021/04/06 07:22:47;;;;;;;3.73;1.97;;;3.00;99.90;;;;;;5129181;28;20402;-80
2021/04/06 07:25:14;;;;;;;4.20;2.37;;;3.00;99.90;;;;;;5129023;28;20419;-80
2021/04/06 07:27:42;;;;;;;3.40;2.50;;;3.00;99.90;;;;;;5129247;28;20872;-80
2021/04/06 07:30:11;;;;;;;2.53;2.33;;;3.10;99.90;;;;;;5122014;28;20429;-80
2021/04/06 07:32:40;;;;;;;11.17;3.43;;;3.00;99.90;;;;;;5111037;28;20426;-80
2021/04/06 07:35:07;;;;;;;3.90;3.07;;;3.00;99.90;;;;;;5129565;28;20933;-80
2021/04/06 07:37:41;;;;;;;14.70;4.40;;;3.00;99.90;;;;;;5121373;28;20415;-80
2021/04/06 07:40:12;;;;;;;5.70;2.37;;;3.00;99.90;;;;;;5118295;28;20419;-80
2021/04/06 07:42:43;;;;;;;3.23;3.00;;;2.80;99.90;;;;;;5106786;28;20415;-79
2021/04/06 07:45:39;;;;;;;4.03;3.27;;;2.60;99.90;;;;;;5023605;28;20467;-81
2021/04/06 07:48:09;;;;;;;2.87;1.90;;;2.60;99.90;;;;;;5044887;28;20918;-81
2021/04/06 07:50:43;;;;;;;5.55;3.55;;;2.80;99.90;;;;;;5010066;28;20467;-80
2021/04/06 07:53:24;;;;;;;7.30;3.90;;;2.60;99.90;;;;;;5005964;28;20250;-81
2021/04/06 07:55:51;;;;;;;4.07;2.47;;;2.80;99.90;;;;;;5037682;28;20389;-81
2021/04/06 07:58:42;;;;;;;4.87;2.87;;;3.10;99.90;;;;;;5022741;28;20796;-81
2021/04/06 08:01:08;;;;;;;2.13;1.93;;;3.40;99.90;;;;;;5038514;28;20438;-81
2021/04/06 08:04:02;;;;;;;1.90;1.80;;;3.50;99.90;;;;;;5035712;28;20428;-81
2021/04/06 08:06:49;;;;;;;2.83;2.30;;;3.10;99.90;;;;;;5023086;28;20189;-80
2021/04/06 08:09:42;;;;;;;3.60;2.10;;;3.20;99.90;;;;;;5013015;28;20462;-80
2021/04/06 08:12:18;;;;;;;6.77;2.80;;;3.30;99.90;;;;;;5005917;28;20442;-79
2021/04/06 08:14:52;;;;;;;3.33;1.90;;;3.30;99.90;;;;;;4986988;28;21017;-79
2021/04/06 08:17:42;;;;;;;1.80;1.70;;;3.30;99.90;;;;;;5024712;28;20434;-79
2021/04/06 08:20:17;;;;;;;2.80;2.13;;;3.50;99.90;;;;;;5009345;28;20431;-77
2021/04/06 08:22:49;;;;;;;3.90;3.60;;;3.60;99.90;;;;;;5031676;28;20423;-77
2021/04/06 08:25:37;;;;;;;5.70;2.90;;;3.80;99.90;;;;;;5035289;28;20806;-77
2021/04/06 08:28:25;;;;;;;5.27;3.47;;;3.90;99.90;;;;;;5032029;28;20828;-77
2021/04/06 08:30:51;;;;;;;4.87;2.47;;;4.00;99.90;;;;;;5043283;28;20480;-76
2021/04/06 08:33:28;;;;;;;2.60;2.20;;;4.00;99.90;;;;;;5042772;28;20454;-79
2021/04/06 08:36:02;;;;;;;5.20;2.57;;;3.90;99.90;;;;;;5039333;28;20429;-80
2021/04/06 08:38:42;;;;;;;4.53;3.90;;;3.90;99.90;;;;;;5037681;28;21046;-81
2021/04/06 08:41:32;;;;;;;3.17;2.13;;;4.00;99.90;;;;;;5045369;28;20445;-80
2021/04/06 08:44:00;;;;;;;2.33;1.60;;;4.20;99.90;;;;;;5100095;28;20420;-81
2021/04/06 08:46:42;;;;;;;2.00;1.80;;;4.10;99.90;;;;;;5055552;28;20495;-81
2021/04/06 08:49:14;;;;;;;2.53;2.10;;;4.30;99.90;;;;;;5101302;28;20393;-80
2021/04/06 08:51:50;;;;;;;5.97;3.40;;;4.40;99.90;;;;;;5117452;28;20498;-81
2021/04/06 08:54:20;;;;;;;3.00;2.53;;;4.50;99.90;;;;;;5121190;28;20543;-81
2021/04/06 08:56:50;;;;;;;2.27;2.17;;;4.70;99.90;;;;;;5097507;28;20423;-81
2021/04/06 08:59:31;;;;;;;2.27;2.07;;;4.60;99.90;;;;;;5121969;28;20406;-80
2021/04/06 09:02:09;;;;;;;3.17;2.20;;;4.50;99.90;;;;;;5121887;28;20400;-79
2021/04/06 09:04:40;;;;;;;3.15;2.50;;;4.70;99.90;;;;;;5118295;28;20419;-79
2021/04/06 09:07:19;;;;;;;9.43;3.33;;;4.90;99.90;;;;;;5122205;28;20166;-79
2021/04/06 09:09:46;;;;;;;5.50;2.73;;;4.80;99.90;;;;;;5127288;28;20407;-77
2021/04/06 09:12:16;;;;;;;7.90;2.23;;;4.90;99.90;;;;;;5127838;28;20486;-77
2021/04/06 09:14:43;;;;;;;3.40;3.10;;;4.80;99.90;;;;;;5095264;28;20444;-77
2021/04/06 09:17:08;;;;;;;3.87;2.43;;;4.90;99.90;;;;;;5093282;28;20407;-77
2021/04/06 09:19:36;;;;;;;2.70;2.10;;;4.80;99.90;;;;;;5090870;28;20387;-78
2021/04/06 09:22:05;;;;;;;5.70;4.37;;;4.90;99.90;;;;;;5110304;28;20425;-78
2021/04/06 09:24:32;;;;;;;8.13;6.17;;;5.00;99.90;;;;;;5124427;28;20452;-77
2021/04/06 09:26:59;;;;;;;4.63;3.17;;;5.40;99.90;;;;;;5129570;28;20460;-77
2021/04/06 09:29:29;;;;;;;4.20;3.53;;;5.60;99.90;;;;;;5108130;28;20499;-78
2021/04/06 09:32:07;;;;;;;1.90;1.80;;;5.40;99.90;;;;;;5107906;28;20757;-78
2021/04/06 09:34:36;;;;;;;2.43;2.23;;;5.30;99.90;;;;;;5110052;28;20451;-78
2021/04/06 09:37:06;;;;;;;7.40;3.00;;;5.30;99.90;;;;;;5125135;28;20548;-79
2021/04/06 09:39:33;;;;;;;4.20;2.17;;;5.30;99.90;;;;;;5125239;28;20652;-80
2021/04/06 09:42:00;;;;;;;9.83;2.60;;;5.10;99.90;;;;;;5120245;28;20427;-80
2021/04/06 09:44:28;;;;;;;3.67;2.63;;;4.90;99.90;;;;;;5118428;28;20427;-79
2021/04/06 09:46:59;;;;;;;5.10;3.10;;;4.60;99.90;;;;;;5101286;28;20459;-80
2021/04/06 09:49:32;;;;;;;3.70;2.50;;;4.50;99.90;;;;;;5119639;28;20399;-80
2021/04/06 09:52:00;;;;;;;5.50;2.80;;;4.30;99.90;;;;;;5111283;28;20423;-80
2021/04/06 09:54:29;;;;;;;2.27;2.17;;;4.00;99.90;;;;;;5120811;28;20475;-80
2021/04/06 09:57:02;;;;;;;6.20;2.67;;;3.50;99.90;;;;;;5117507;28;20420;-79
2021/04/06 09:59:29;;;;;;;5.17;4.77;;;3.40;99.90;;;;;;5038108;28;20973;-79
2021/04/06 10:01:57;;;;;;;3.43;2.37;;;3.50;99.90;;;;;;5055385;28;20464;-80
2021/04/06 10:04:33;;;;;;;6.43;3.03;;;3.30;99.90;;;;;;5047491;28;20609;-81
2021/04/06 10:07:14;;;;;;;5.00;2.50;;;3.40;99.90;;;;;;5056562;28;20952;-81
2021/04/06 10:09:45;;;;;;;3.30;2.80;;;3.70;99.90;;;;;;5056000;28;20436;-81
2021/04/06 10:12:12;;;;;;;2.37;2.17;;;4.00;99.90;;;;;;5039109;28;20914;-80
2021/04/06 10:14:39;;;;;;;3.07;2.47;;;4.10;99.90;;;;;;5052437;28;20504;-81
2021/04/06 10:17:09;;;;;;;3.17;2.90;;;4.40;99.90;;;;;;5054437;28;20489;-81
2021/04/06 10:19:39;;;;;;;4.10;2.80;;;4.30;99.90;;;;;;5057435;28;20489;-79
2021/04/06 10:22:11;;;;;;;7.03;2.10;;;4.40;99.90;;;;;;5065106;28;20407;-81
2021/04/06 10:24:42;;;;;;;4.77;2.70;;;4.40;99.90;;;;;;5106278;28;20439;-81
2021/04/06 10:27:28;;;;;;;3.73;2.43;;;4.20;99.90;;;;;;5120610;28;20868;-80
2021/04/06 10:29:58;;;;;;;2.23;2.13;;;4.90;99.90;;;;;;5119738;28;20415;-81
2021/04/06 10:32:31;;;;;;;3.30;2.33;;;5.60;99.90;;;;;;5117582;28;20507;-80
2021/04/06 10:35:00;;;;;;;7.50;3.00;;;6.40;99.90;;;;;;5118392;28;20451;-81
2021/04/06 10:37:38;;;;;;;3.13;2.53;;;6.80;99.90;;;;;;5108940;28;20435;-80
2021/04/06 10:40:28;;;;;;;2.40;2.10;;;6.60;99.90;;;;;;5099032;28;20420;-81
2021/04/06 10:43:03;;;;;;;8.50;2.20;;;6.50;99.90;;;;;;5114851;28;20406;-80
2021/04/06 10:45:34;;;;;;;5.63;3.00;;;7.10;99.90;;;;;;5068674;28;20434;-81
2021/04/06 10:48:09;;;;;;;3.00;2.67;;;7.40;99.90;;;;;;5068982;28;20510;-79
2021/04/06 10:50:49;;;;;;;2.57;2.37;;;7.30;99.90;;;;;;5074420;28;20416;-78
2021/04/06 10:53:21;;;;;;;1.57;1.47;;;7.70;99.90;;;;;;5041212;28;20453;-81
2021/04/06 10:55:51;;;;;;;6.67;2.80;;;6.80;99.90;;;;;;5076245;28;20410;-81
2021/04/06 10:58:28;;;;;;;7.17;2.67;;;6.80;99.90;;;;;;5067070;28;20496;-80
2021/04/06 11:01:06;;;;;;;3.57;1.97;;;6.60;99.90;;;;;;5066248;28;20432;-80
2021/04/06 11:03:38;;;;;;;2.83;1.60;;;6.50;99.90;;;;;;5051888;28;20400;-80
2021/04/06 11:06:15;;;;;;;2.50;2.30;;;6.70;99.90;;;;;;5058676;28;20422;-81
2021/04/06 11:08:46;;;;;;;11.60;2.67;;;6.70;99.90;;;;;;5070567;28;20484;-80
2021/04/06 11:11:26;;;;;;;2.70;1.80;;;6.30;99.90;;;;;;5068554;28;20434;-80
2021/04/06 11:13:55;;;;;;;3.00;1.80;;;6.30;99.90;;;;;;5012088;28;20477;-79
2021/04/06 11:16:40;;;;;;;2.80;2.27;;;5.90;99.90;;;;;;5060175;28;20431;-80
2021/04/06 11:19:23;;;;;;;2.37;2.17;;;5.80;99.90;;;;;;5042762;28;20463;-79
2021/04/06 11:21:53;;;;;;;1.97;1.87;;;4.80;99.90;;;;;;5067757;28;20428;-82
2021/04/06 11:24:21;;;;;;;3.73;2.17;;;4.80;99.90;;;;;;5059454;28;20429;-79
2021/04/06 11:26:47;;;;;;;4.03;2.37;;;5.00;99.90;;;;;;5071967;28;20489;-79
2021/04/06 11:29:15;;;;;;;4.87;2.40;;;4.90;99.90;;;;;;5058426;28;20461;-80
2021/04/06 11:31:42;;;;;;;4.53;2.70;;;4.80;99.90;;;;;;5060752;28;20425;-80
2021/04/06 11:34:09;;;;;;;2.37;2.17;;;4.90;99.90;;;;;;5080647;28;20528;-80
2021/04/06 11:36:35;;;;;;;4.00;1.67;;;4.90;99.90;;;;;;5083313;28;20416;-80
2021/04/06 11:39:06;;;;;;;1.73;1.63;;;4.70;99.90;;;;;;5092424;28;20512;-80
2021/04/06 11:41:35;;;;;;;3.73;2.63;;;4.90;99.90;;;;;;5066504;28;21062;-78
2021/04/06 11:44:05;;;;;;;1.60;1.50;;;4.80;99.90;;;;;;5045594;28;20431;-80
2021/04/06 11:49:23;;;;;;;2.00;1.83;;;4.40;99.90;;;;;;4970623;28;20426;-81
2021/04/06 11:51:49;;;;;;;1.97;1.70;;;4.20;99.90;;;;;;4944579;29;20487;-81
2021/04/06 11:54:18;;;;;;;4.80;1.83;;;4.40;99.90;;;;;;4944449;29;20456;-80
2021/04/06 11:56:45;;;;;;;12.03;2.43;;;4.30;99.90;;;;;;4920940;29;20494;-80
2021/04/06 11:59:14;;;;;;;2.30;2.20;;;4.60;99.90;;;;;;4974781;28;20406;-79
2021/04/06 12:01:45;;;;;;;4.30;2.53;;;4.50;99.90;;;;;;4982609;28;20407;-81
2021/04/06 12:04:12;;;;;;;2.20;2.00;;;4.90;99.90;;;;;;4948358;29;20434;-81
2021/04/06 12:06:39;;;;;;;6.53;2.27;;;5.60;99.90;;;;;;4944418;29;20570;-79
2021/04/06 12:09:34;;;;;;;4.10;1.90;;;6.00;99.90;;;;;;4963405;29;20463;-80
2021/04/06 12:12:01;;;;;;;7.83;2.10;;;6.30;99.90;;;;;;4894515;29;20485;-79
2021/04/06 12:14:30;;;;;;;2.20;2.00;;;6.90;99.90;;;;;;4916298;29;20463;-81
2021/04/06 12:16:56;;;;;;;2.97;2.70;;;7.10;99.90;;;;;;4926163;29;20420;-80
2021/04/06 12:19:22;;;;;;;5.77;2.30;;;8.20;99.90;;;;;;4947439;28;20827;-81
2021/04/06 12:21:47;;;;;;;3.30;2.40;;;8.60;99.90;;;;;;4992979;28;20192;-79
2021/04/06 12:24:19;;;;;;;3.40;2.43;;;10.10;99.90;;;;;;5057332;28;20394;-80
2021/04/06 12:26:45;;;;;;;5.73;2.63;;;11.10;99.90;;;;;;5007093;28;20195;-81
2021/04/06 12:29:11;;;;;;;2.40;2.20;;;11.30;99.90;;;;;;5039586;28;20443;-81
2021/04/06 12:31:36;;;;;;;2.80;1.90;;;11.30;99.90;;;;;;5029821;28;20218;-81
2021/04/06 12:34:02;;;;;;;3.23;2.87;;;10.20;99.90;;;;;;5042478;28;20633;-81
2021/04/06 12:36:28;;;;;;;2.30;2.10;;;10.30;99.90;;;;;;5032982;28;20172;-81
2021/04/06 12:38:54;;;;;;;2.97;2.67;;;10.40;99.90;;;;;;5039890;28;20535;-81
2021/04/06 12:41:55;;;;;;;2.33;2.13;;;10.60;99.90;;;;;;5040695;28;20633;-81
2021/04/06 12:44:23;;;;;;;2.73;2.20;;;11.80;99.90;;;;;;5050888;28;20195;-80
2021/04/06 12:46:49;;;;;;;2.97;2.30;;;12.10;99.90;;;;;;5080383;28;20450;-81
2021/04/06 12:49:15;;;;;;;1.70;1.60;;;11.90;99.30;;;;;;5080723;28;20187;-80
2021/04/06 12:51:43;;;;;;;2.17;1.93;;;12.20;98.00;;;;;;5080272;28;20171;-81
2021/04/06 12:54:10;;;;;;;2.20;1.90;;;11.80;93.80;;;;;;5031251;28;20214;-80
2021/04/06 12:56:36;;;;;;;2.67;2.47;;;10.60;97.00;;;;;;5081131;28;20412;-81
2021/04/06 12:59:02;;;;;;;3.90;2.20;;;10.40;96.00;;;;;;5062852;28;20501;-80
2021/04/06 13:01:31;;;;;;;5.80;2.90;;;10.00;98.00;;;;;;5063908;28;20623;-81
2021/04/06 13:03:57;;;;;;;4.50;2.40;;;9.70;99.90;;;;;;5031290;28;20496;-81
2021/04/06 13:06:26;;;;;;;2.80;1.73;;;9.30;99.90;;;;;;5064000;28;20398;-81
2021/04/06 13:08:52;;;;;;;4.50;2.47;;;9.00;99.90;;;;;;5064195;28;20229;-81
2021/04/06 13:11:17;;;;;;;2.20;2.00;;;8.90;99.90;;;;;;5079809;28;20401;-81
2021/04/06 13:13:46;;;;;;;6.60;2.80;;;9.10;99.90;;;;;;5079559;28;20227;-81